Terminal Aerodrome Forecast
Issued by NWS Quad Cities IA IL

Home | Current Version | Previous Version | Text Only | Print | Product List | Glossary On
Versions: 1 2 3 4 5 6 7 8 9 10 11 12 13 14 15 16 17 18 19 20 21 22 23 24 25 26 27 28 29 30 31 32 33 34 35
000
FTUS43 KDVN 060250 AAD
TAFDBQ
TAF AMD
KDBQ 060250Z 0603/0624 16016G24KT 2SM BR OVC002
      TEMPO 0603/0606 1/4SM FZFG VV002
     FM060600 16012KT 1/4SM FZFG VV001
     FM061400 24007KT 2SM BR OVC004
     FM061700 27015G25KT 6SM BR BKN050=

USA.gov is the U.S. government's official web portal to all federal, state and local government web resources and services.